createdAt,value
2022-08-21T00:00:44.230Z,101560.56
2022-08-21T00:03:14.821Z,101554.91
2022-08-21T00:05:45.297Z,101553.06
2022-08-21T00:08:13.574Z,101545.19
2022-08-21T00:10:42.400Z,101553.94
2022-08-21T00:13:11.082Z,101558.59
2022-08-21T00:15:40.287Z,101542.28
2022-08-21T00:18:11.765Z,101542.28
2022-08-21T00:20:42.244Z,101545.59
2022-08-21T00:23:10.948Z,101537.72
2022-08-21T00:25:39.927Z,101533.19
2022-08-21T00:28:08.619Z,101536.03
2022-08-21T00:30:37.107Z,101531.72
2022-08-21T00:33:07.362Z,101533.59
2022-08-21T00:35:38.230Z,101537.97
2022-08-21T00:38:10.620Z,101525.47
2022-08-21T00:40:42.772Z,101523.00
2022-08-21T00:43:13.114Z,101527.19
2022-08-21T00:45:41.284Z,101532.47
2022-08-21T00:48:09.295Z,101528.44
2022-08-21T00:50:41.866Z,101525.84
2022-08-21T00:53:13.516Z,101527.94
2022-08-21T00:55:43.022Z,101524.25
2022-08-21T00:58:13.059Z,101523.31
2022-08-21T01:00:43.414Z,101525.00
2022-08-21T01:03:15.952Z,101526.75
2022-08-21T01:05:45.319Z,101522.91
2022-08-21T01:08:17.216Z,101527.69
2022-08-21T01:10:45.555Z,101525.88
2022-08-21T01:13:16.014Z,101524.66
2022-08-21T01:15:48.796Z,101531.53
2022-08-21T01:18:17.448Z,101529.66
2022-08-21T01:20:48.124Z,101526.59
2022-08-21T01:23:20.083Z,101524.88
2022-08-21T01:25:47.979Z,101528.44
2022-08-21T01:28:16.743Z,101522.44
2022-08-21T01:30:46.205Z,101534.09
2022-08-21T01:33:14.087Z,101525.53
2022-08-21T01:35:42.100Z,101525.25
2022-08-21T01:38:10.355Z,101530.19
2022-08-21T01:40:39.701Z,101527.47
2022-08-21T01:43:07.693Z,101531.00
2022-08-21T01:45:35.596Z,101526.00
2022-08-21T01:48:05.557Z,101526.34
2022-08-21T01:50:33.768Z,101527.47
2022-08-21T01:53:01.839Z,101520.13
2022-08-21T01:55:29.726Z,101520.81
2022-08-21T01:58:00.622Z,101520.00
2022-08-21T02:00:28.956Z,101520.00
2022-08-21T02:02:57.024Z,101529.91
2022-08-21T02:05:25.078Z,101513.72
2022-08-21T02:07:54.823Z,101516.56
2022-08-21T02:10:25.277Z,101514.81
2022-08-21T02:12:53.205Z,101514.06
2022-08-21T02:15:22.852Z,101519.09
2022-08-21T02:17:52.986Z,101519.44
2022-08-21T02:20:24.880Z,101523.41
2022-08-21T02:22:53.283Z,101528.06
2022-08-21T02:25:22.961Z,101525.50
2022-08-21T02:27:51.487Z,101521.31
2022-08-21T02:30:25.450Z,101522.03
2022-08-21T02:32:53.676Z,101521.53
2022-08-21T02:35:22.520Z,101521.91
2022-08-21T02:37:52.822Z,101520.28
2022-08-21T02:40:22.901Z,101527.41
2022-08-21T02:42:51.024Z,101522.34
2022-08-21T02:45:19.636Z,101523.44
2022-08-21T02:47:51.622Z,101519.03
2022-08-21T02:50:22.488Z,101515.34
2022-08-21T02:52:51.757Z,101518.06
2022-08-21T02:55:20.097Z,101514.66
2022-08-21T02:57:47.965Z,101507.06
2022-08-21T03:00:17.228Z,101509.88
2022-08-21T03:02:47.664Z,101503.72
2022-08-21T03:05:17.572Z,101508.25
2022-08-21T03:07:47.495Z,101501.75
2022-08-21T03:10:16.776Z,101503.94
2022-08-21T03:12:44.699Z,101506.13
2022-08-21T03:15:16.924Z,101504.78
2022-08-21T03:17:44.872Z,101500.41
2022-08-21T03:20:15.351Z,101506.00
2022-08-21T03:22:48.535Z,101504.31
2022-08-21T03:25:23.441Z,101504.06
2022-08-21T03:28:13.248Z,101499.88
2022-08-21T03:30:42.719Z,101501.59
2022-08-21T03:33:13.136Z,101504.31
2022-08-21T03:35:43.750Z,101504.44
2022-08-21T03:38:14.061Z,101497.69
2022-08-21T03:40:42.324Z,101497.19
2022-08-21T03:43:11.064Z,101494.25
2022-08-21T03:45:40.377Z,101497.31
2022-08-21T03:48:10.218Z,101498.53
2022-08-21T03:50:41.546Z,101501.34
2022-08-21T03:53:16.473Z,101504.50
2022-08-21T03:55:48.048Z,101504.03
2022-08-21T03:58:17.492Z,101508.47
2022-08-21T04:00:48.715Z,101504.16
2022-08-21T04:03:16.955Z,101505.00
2022-08-21T04:05:46.591Z,101505.22
2022-08-21T04:08:16.039Z,101495.88
2022-08-21T04:10:48.563Z,101511.91
2022-08-21T04:13:16.860Z,101502.75
2022-08-21T04:15:45.101Z,101507.28
2022-08-21T04:18:13.193Z,101504.06
2022-08-21T04:20:42.216Z,101506.53
2022-08-21T04:23:13.433Z,101504.06
2022-08-21T04:25:54.451Z,101508.38
2022-08-21T04:28:23.342Z,101505.06
2022-08-21T04:30:53.047Z,101506.66
2022-08-21T04:33:21.758Z,101515.59
2022-08-21T04:35:50.541Z,101505.13
2022-08-21T04:38:18.753Z,101507.81
2022-08-21T04:40:48.348Z,101514.13
2022-08-21T04:43:19.240Z,101511.38
2022-08-21T04:45:49.275Z,101513.78
2022-08-21T04:48:20.091Z,101514.31
2022-08-21T04:50:52.591Z,101520.56
2022-08-21T04:53:24.659Z,101522.13
2022-08-21T04:55:54.699Z,101525.19
2022-08-21T04:58:27.364Z,101523.66
2022-08-21T05:00:58.716Z,101530.66
2022-08-21T05:03:27.122Z,101528.84
2022-08-21T05:05:55.298Z,101522.75
2022-08-21T05:08:27.872Z,101526.06
2022-08-21T05:11:00.657Z,101534.66
2022-08-21T05:13:30.585Z,101531.34
2022-08-21T05:16:00.038Z,101525.69
2022-08-21T05:18:28.228Z,101533.31
2022-08-21T05:20:56.281Z,101534.53
2022-08-21T05:23:24.173Z,101531.72
2022-08-21T05:25:52.147Z,101540.06
2022-08-21T05:28:20.520Z,101532.09
2022-08-21T05:30:55.242Z,101533.81
2022-08-21T05:33:23.432Z,101526.09
2022-08-21T05:35:53.025Z,101537.50
2022-08-21T05:38:21.196Z,101530.66
2022-08-21T05:40:49.352Z,101531.88
2022-08-21T05:43:17.681Z,101533.50
2022-08-21T05:45:46.016Z,101533.84
2022-08-21T05:48:18.228Z,101529.78
2022-08-21T05:50:49.076Z,101526.81
2022-08-21T05:53:18.863Z,101531.94
2022-08-21T05:55:50.168Z,101531.06
2022-08-21T05:58:20.506Z,101540.03
2022-08-21T06:00:50.732Z,101531.63
2022-08-21T06:03:23.387Z,101535.31
2022-08-21T06:05:53.763Z,101532.91
2022-08-21T06:08:22.860Z,101536.44
2022-08-21T06:10:52.292Z,101531.16
2022-08-21T06:13:21.619Z,101531.25
2022-08-21T06:15:50.056Z,101534.41
2022-08-21T06:18:19.491Z,101530.34
2022-08-21T06:20:47.482Z,101529.72
2022-08-21T06:23:18.880Z,101526.88
2022-08-21T06:25:47.278Z,101537.28
2022-08-21T06:28:15.291Z,101534.34
2022-08-21T06:30:43.663Z,101535.94
2022-08-21T06:33:11.766Z,101534.41
2022-08-21T06:35:41.886Z,101531.44
2022-08-21T06:38:11.277Z,101533.75
2022-08-21T06:40:47.018Z,101521.59
2022-08-21T06:43:18.299Z,101529.84
2022-08-21T06:45:46.837Z,101525.00
2022-08-21T06:48:19.202Z,101533.13
2022-08-21T06:50:49.222Z,101526.19
2022-08-21T06:53:19.761Z,101520.94
2022-08-21T06:55:48.785Z,101522.66
2022-08-21T06:58:18.133Z,101528.50
2022-08-21T07:00:49.621Z,101518.22
2022-08-21T07:03:28.198Z,101522.16
2022-08-21T07:05:59.425Z,101514.31
2022-08-21T07:08:28.036Z,101518.44
2022-08-21T07:10:59.332Z,101515.31
2022-08-21T07:13:27.723Z,101505.31
2022-08-21T07:15:58.176Z,101505.00
2022-08-21T07:18:28.305Z,101495.94
2022-08-21T07:20:58.185Z,101503.31
2022-08-21T07:23:30.603Z,101492.34
2022-08-21T07:26:00.307Z,101486.72
2022-08-21T07:28:28.783Z,101489.84
2022-08-21T07:30:59.435Z,101485.81
2022-08-21T07:33:28.829Z,101485.91
2022-08-21T07:35:58.451Z,101485.03
2022-08-21T07:38:27.066Z,101482.34
2022-08-21T07:40:57.701Z,101467.34
2022-08-21T07:43:26.286Z,101479.72
2022-08-21T07:45:55.056Z,101471.72
2022-08-21T07:48:23.085Z,101473.41
2022-08-21T07:50:52.267Z,101468.63
2022-08-21T07:53:21.843Z,101468.06
2022-08-21T07:55:50.043Z,101476.78
2022-08-21T07:58:18.317Z,101470.03
2022-08-21T08:00:46.738Z,101464.28
2022-08-21T08:03:14.911Z,101465.59
2022-08-21T08:05:50.489Z,101464.69
2022-08-21T08:08:18.631Z,101463.53
2022-08-21T08:10:48.125Z,101460.38
2022-08-21T08:13:16.357Z,101467.47
2022-08-21T08:15:44.440Z,101462.97
2022-08-21T08:18:12.500Z,101460.31
2022-08-21T08:20:40.542Z,101466.00
2022-08-21T08:23:08.604Z,101459.75
2022-08-21T08:25:37.044Z,101465.44
2022-08-21T08:28:16.629Z,101458.25
2022-08-21T08:30:46.339Z,101461.69
2022-08-21T08:33:14.555Z,101459.03
2022-08-21T08:35:43.504Z,101455.03
2022-08-21T08:38:11.894Z,101461.78
2022-08-21T08:40:46.346Z,101451.41
2022-08-21T08:43:16.589Z,101453.28
2022-08-21T08:45:50.460Z,101451.00
2022-08-21T08:48:37.299Z,101447.06
2022-08-21T08:51:10.409Z,101450.88
2022-08-21T08:53:49.434Z,101444.44
2022-08-21T08:56:18.024Z,101448.38
2022-08-21T08:58:48.692Z,101435.31
2022-08-21T09:01:21.815Z,101439.53
2022-08-21T09:03:53.033Z,101439.53
2022-08-21T09:06:38.948Z,101450.03
2022-08-21T09:09:20.990Z,101443.59
2022-08-21T09:12:00.230Z,101437.75
2022-08-21T09:14:43.962Z,101440.22
2022-08-21T09:17:22.065Z,101431.84
2022-08-21T09:20:05.325Z,101436.81
2022-08-21T09:22:45.986Z,101444.66
2022-08-21T09:25:23.267Z,101436.16
2022-08-21T09:27:52.261Z,101423.28
2022-08-21T09:30:29.413Z,101426.16
2022-08-21T09:32:58.313Z,101432.97
2022-08-21T09:35:27.258Z,101423.72
2022-08-21T09:37:59.193Z,101419.63
2022-08-21T09:40:38.918Z,101419.06
2022-08-21T09:43:20.593Z,101420.25
2022-08-21T09:45:51.645Z,101420.09
2022-08-21T09:48:26.342Z,101426.53
2022-08-21T09:50:56.636Z,101413.28
2022-08-21T09:53:30.577Z,101415.91
2022-08-21T09:56:24.202Z,101412.56
2022-08-21T09:58:54.141Z,101411.06
2022-08-21T10:01:27.481Z,101410.59
2022-08-21T10:04:05.177Z,101418.81
2022-08-21T10:06:37.071Z,101422.84
2022-08-21T10:09:16.890Z,101409.72
2022-08-21T10:11:53.705Z,101418.13
2022-08-21T10:14:37.289Z,101412.00
2022-08-21T10:17:18.182Z,101416.25
2022-08-21T10:19:57.950Z,101415.69
2022-08-21T10:22:42.474Z,101418.66
2022-08-21T10:25:19.281Z,101420.34
2022-08-21T10:27:57.343Z,101405.41
2022-08-21T10:30:38.864Z,101417.69
2022-08-21T10:33:21.779Z,101417.41
2022-08-21T10:35:56.420Z,101421.47
2022-08-21T10:39:17.438Z,101421.44
2022-08-21T10:41:55.932Z,101419.66
2022-08-21T10:44:34.337Z,101407.59
2022-08-21T10:47:06.898Z,101412.13
2022-08-21T10:49:48.892Z,101404.00
2022-08-21T10:52:44.270Z,101416.28
2022-08-21T10:55:16.392Z,101403.53
2022-08-21T10:57:50.183Z,101407.84
2022-08-21T11:00:22.753Z,101403.03
2022-08-21T11:02:57.928Z,101409.59
2022-08-21T11:05:33.385Z,101411.38
2022-08-21T11:08:09.394Z,101407.50
2022-08-21T11:10:57.862Z,101402.94
2022-08-21T11:13:38.342Z,101398.72
2022-08-21T11:16:14.582Z,101399.19
2022-08-21T11:18:49.649Z,101402.41
2022-08-21T11:21:31.606Z,101404.28
2022-08-21T11:24:06.002Z,101416.97
2022-08-21T11:26:39.644Z,101400.25
2022-08-21T11:29:14.037Z,101403.34
2022-08-21T11:31:53.910Z,101414.56
2022-08-21T11:34:35.487Z,101398.88
2022-08-21T11:37:13.617Z,101410.97
2022-08-21T11:39:49.472Z,101411.59
2022-08-21T11:42:28.533Z,101404.22
2022-08-21T11:45:11.806Z,101419.13
2022-08-21T11:47:54.590Z,101417.31
2022-08-21T11:50:34.784Z,101417.69
2022-08-21T11:53:11.501Z,101407.88
2022-08-21T11:55:46.296Z,101416.34
2022-08-21T11:58:20.895Z,101412.63
2022-08-21T12:00:54.916Z,101414.47
2022-08-21T12:03:28.959Z,101410.34
2022-08-21T12:06:00.786Z,101404.13
2022-08-21T12:08:32.666Z,101396.34
2022-08-21T12:11:07.930Z,101395.34
2022-08-21T12:13:42.429Z,101401.66
2022-08-21T12:16:15.906Z,101399.41
2022-08-21T12:18:44.844Z,101396.66
2022-08-21T12:21:23.547Z,101400.34
2022-08-21T12:24:05.361Z,101402.50
2022-08-21T12:26:37.011Z,101397.78
2022-08-21T12:29:14.588Z,101399.06
2022-08-21T12:32:00.904Z,101399.50
2022-08-21T12:34:36.135Z,101396.44
2022-08-21T12:37:08.886Z,101397.09
2022-08-21T12:39:45.332Z,101394.72
2022-08-21T12:42:20.559Z,101398.50
2022-08-21T12:44:52.757Z,101400.59
2022-08-21T12:47:35.645Z,101397.13
2022-08-21T12:50:09.368Z,101390.41
2022-08-21T12:52:42.866Z,101396.22
2022-08-21T12:55:16.825Z,101394.25
2022-08-21T12:57:45.360Z,101394.91
2022-08-21T13:00:17.090Z,101382.19
2022-08-21T13:02:50.417Z,101395.97
2022-08-21T13:05:31.046Z,101389.34
2022-08-21T13:07:59.822Z,101396.34
2022-08-21T13:10:33.176Z,101384.47
2022-08-21T13:13:12.844Z,101387.94
2022-08-21T13:15:47.879Z,101390.03
2022-08-21T13:18:23.781Z,101382.81
2022-08-21T13:20:53.726Z,101389.88
2022-08-21T13:23:26.457Z,101391.38
2022-08-21T13:25:56.982Z,101386.53
2022-08-21T13:28:25.509Z,101379.56
2022-08-21T13:30:56.784Z,101361.66
2022-08-21T13:33:36.331Z,101368.72
2022-08-21T13:36:10.024Z,101363.78
2022-08-21T13:38:41.160Z,101378.66
2022-08-21T13:41:23.757Z,101377.72
2022-08-21T13:44:02.161Z,101372.69
2022-08-21T13:46:33.795Z,101374.38
2022-08-21T13:49:03.907Z,101372.19
2022-08-21T13:51:33.154Z,101372.78
2022-08-21T13:54:01.585Z,101365.19
2022-08-21T13:56:34.057Z,101376.09
2022-08-21T13:59:03.888Z,101377.75
2022-08-21T14:01:35.218Z,101378.41
2022-08-21T14:04:06.559Z,101372.50
2022-08-21T14:06:38.154Z,101378.59
2022-08-21T14:09:12.781Z,101371.75
2022-08-21T14:11:42.493Z,101378.81
2022-08-21T14:14:21.169Z,101372.72
2022-08-21T14:16:56.531Z,101375.84
2022-08-21T14:19:27.644Z,101371.19
2022-08-21T14:21:56.690Z,101372.34
2022-08-21T14:24:30.438Z,101378.03
2022-08-21T14:27:04.160Z,101374.03
2022-08-21T14:29:38.348Z,101373.16
2022-08-21T14:32:25.039Z,101375.34
2022-08-21T14:34:54.818Z,101370.75
2022-08-21T14:37:23.270Z,101369.41
2022-08-21T14:39:51.432Z,101366.78
2022-08-21T14:42:21.508Z,101366.47
2022-08-21T14:44:49.609Z,101370.91
2022-08-21T14:47:17.721Z,101376.63
2022-08-21T14:49:45.854Z,101372.19
2022-08-21T14:52:14.118Z,101372.97
2022-08-21T14:54:42.265Z,101377.84
2022-08-21T14:57:16.425Z,101373.22
2022-08-21T14:59:50.566Z,101365.91
2022-08-21T15:02:19.145Z,101366.22
2022-08-21T15:04:47.261Z,101373.84
2022-08-21T15:07:21.046Z,101374.44
2022-08-21T15:09:49.507Z,101362.09
2022-08-21T15:12:18.449Z,101372.50
2022-08-21T15:15:02.051Z,101370.09
2022-08-21T15:17:30.425Z,101370.56
2022-08-21T15:19:58.457Z,101376.03
2022-08-21T15:22:28.099Z,101375.38
2022-08-21T15:24:56.692Z,101379.63
2022-08-21T15:27:25.096Z,101376.88
2022-08-21T15:29:55.367Z,101364.09
2022-08-21T15:32:30.310Z,101370.25
2022-08-21T15:35:01.309Z,101369.91
2022-08-21T15:37:29.737Z,101367.50
2022-08-21T15:39:58.279Z,101370.25
2022-08-21T15:42:31.053Z,101369.94
2022-08-21T15:45:05.466Z,101355.34
2022-08-21T15:47:35.563Z,101369.50
2022-08-21T15:50:04.054Z,101363.16
2022-08-21T15:52:32.279Z,101358.34
2022-08-21T15:55:00.815Z,101367.03
2022-08-21T15:57:29.245Z,101364.81
2022-08-21T16:00:07.410Z,101367.22
2022-08-21T16:02:35.589Z,101368.13
2022-08-21T16:05:03.697Z,101362.66
2022-08-21T16:07:34.705Z,101367.06
2022-08-21T16:10:03.791Z,101372.00
2022-08-21T16:12:34.289Z,101369.44
2022-08-21T16:15:05.408Z,101368.44
2022-08-21T16:17:36.247Z,101369.63
2022-08-21T16:20:08.092Z,101361.97
2022-08-21T16:22:41.289Z,101369.44
2022-08-21T16:25:13.923Z,101359.06
2022-08-21T16:27:43.880Z,101356.84
2022-08-21T16:30:15.543Z,101356.53
2022-08-21T16:32:44.949Z,101357.53
2022-08-21T16:35:15.622Z,101355.66
2022-08-21T16:37:44.934Z,101362.28
2022-08-21T16:40:14.031Z,101357.00
2022-08-21T16:42:43.771Z,101368.84
2022-08-21T16:45:15.224Z,101358.59
2022-08-21T16:47:44.711Z,101367.34
2022-08-21T16:50:14.749Z,101369.28
2022-08-21T16:52:43.436Z,101367.09
2022-08-21T16:55:11.498Z,101361.34
2022-08-21T16:57:40.244Z,101365.47
2022-08-21T17:00:11.646Z,101355.25
2022-08-21T17:02:45.084Z,101365.66
2022-08-21T17:05:14.221Z,101358.34
2022-08-21T17:07:46.078Z,101356.28
2022-08-21T17:10:16.086Z,101355.78
2022-08-21T17:12:51.523Z,101361.25
2022-08-21T17:15:23.554Z,101366.53
2022-08-21T17:17:53.816Z,101363.31
2022-08-21T17:20:22.284Z,101371.19
2022-08-21T17:22:50.967Z,101370.50
2022-08-21T17:25:19.951Z,101375.78
2022-08-21T17:27:49.784Z,101375.47
2022-08-21T17:30:18.923Z,101371.94
2022-08-21T17:32:49.618Z,101371.56
2022-08-21T17:35:19.412Z,101377.03
2022-08-21T17:37:47.619Z,101378.63
2022-08-21T17:40:16.747Z,101380.50
2022-08-21T17:42:46.456Z,101381.34
2022-08-21T17:45:17.567Z,101383.72
2022-08-21T17:47:45.864Z,101381.31
2022-08-21T17:50:16.867Z,101391.72
2022-08-21T17:52:52.448Z,101395.31
2022-08-21T17:55:21.778Z,101398.91
2022-08-21T17:57:51.639Z,101397.88
2022-08-21T18:00:21.702Z,101396.84
2022-08-21T18:03:00.618Z,101400.41
2022-08-21T18:05:29.185Z,101401.25
2022-08-21T18:08:01.590Z,101412.63
2022-08-21T18:10:30.010Z,101418.72
2022-08-21T18:12:59.118Z,101421.13
2022-08-21T18:15:27.326Z,101415.50
2022-08-21T18:17:55.543Z,101420.72
2022-08-21T18:20:24.978Z,101417.13
2022-08-21T18:22:53.466Z,101423.25
2022-08-21T18:25:23.194Z,101428.81
2022-08-21T18:27:52.468Z,101433.38
2022-08-21T18:30:22.674Z,101438.47
2022-08-21T18:32:51.970Z,101434.19
2022-08-21T18:35:20.764Z,101437.25
2022-08-21T18:37:48.852Z,101442.41
2022-08-21T18:40:18.283Z,101444.91
2022-08-21T18:42:55.023Z,101439.97
2022-08-21T18:45:25.365Z,101441.31
2022-08-21T18:47:56.844Z,101443.78
2022-08-21T18:50:27.925Z,101440.34
2022-08-21T18:52:57.226Z,101451.22
2022-08-21T18:55:29.347Z,101444.75
2022-08-21T18:58:03.953Z,101453.53
2022-08-21T19:00:36.102Z,101458.56
2022-08-21T19:03:05.899Z,101459.47
2022-08-21T19:05:37.102Z,101459.41
2022-08-21T19:08:08.996Z,101451.94
2022-08-21T19:10:42.657Z,101462.81
2022-08-21T19:13:14.902Z,101467.56
2022-08-21T19:15:47.151Z,101468.88
2022-08-21T19:18:27.968Z,101467.63
2022-08-21T19:20:57.709Z,101468.09
2022-08-21T19:23:29.054Z,101474.38
2022-08-21T19:26:00.732Z,101477.44
2022-08-21T19:28:35.930Z,101479.75
2022-08-21T19:31:11.528Z,101476.34
2022-08-21T19:33:45.603Z,101477.31
2022-08-21T19:36:20.178Z,101484.41
2022-08-21T19:38:48.645Z,101479.72
2022-08-21T19:41:21.308Z,101482.22
2022-08-21T19:43:53.496Z,101481.97
2022-08-21T19:46:27.573Z,101486.13
2022-08-21T19:48:56.981Z,101489.16
2022-08-21T19:51:25.867Z,101475.28
2022-08-21T19:53:57.234Z,101490.16
2022-08-21T19:56:27.829Z,101485.75
2022-08-21T19:58:58.956Z,101493.75
2022-08-21T20:01:28.283Z,101495.50
2022-08-21T20:03:57.546Z,101492.06
2022-08-21T20:06:26.479Z,101493.66
2022-08-21T20:08:56.088Z,101499.22
2022-08-21T20:14:23.660Z,101502.09
2022-08-21T20:16:55.015Z,101501.47
2022-08-21T20:19:23.359Z,101502.00
2022-08-21T20:21:51.468Z,101503.16
2022-08-21T20:24:20.033Z,101500.59
2022-08-21T20:26:49.979Z,101498.28
2022-08-21T20:29:24.413Z,101503.00
2022-08-21T20:31:57.271Z,101502.28
2022-08-21T20:34:25.984Z,101513.88
2022-08-21T20:36:55.007Z,101503.13
2022-08-21T20:39:23.911Z,101503.13
2022-08-21T20:41:53.399Z,101500.47
2022-08-21T20:44:35.926Z,101493.25
2022-08-21T20:47:09.134Z,101503.97
2022-08-21T20:49:46.082Z,101502.56
2022-08-21T20:52:17.270Z,101509.44
2022-08-21T20:54:53.188Z,101510.03
2022-08-21T20:57:29.298Z,101511.66
2022-08-21T21:00:03.834Z,101518.53
2022-08-21T21:02:44.694Z,101527.38
2022-08-21T21:05:16.994Z,101518.94
2022-08-21T21:07:56.690Z,101523.25
2022-08-21T21:10:31.142Z,101527.56
2022-08-21T21:13:04.756Z,101530.28
2022-08-21T21:15:38.175Z,101519.69
2022-08-21T21:18:13.122Z,101521.56
2022-08-21T21:20:49.047Z,101529.81
2022-08-21T21:23:26.840Z,101532.13
2022-08-21T21:26:04.473Z,101538.69
2022-08-21T21:28:47.080Z,101533.56
2022-08-21T21:31:19.702Z,101530.44
2022-08-21T21:33:48.695Z,101531.16
2022-08-21T21:36:26.106Z,101531.59
2022-08-21T21:39:09.550Z,101529.28
2022-08-21T21:41:48.231Z,101533.00
2022-08-21T21:44:35.111Z,101543.16
2022-08-21T21:47:12.085Z,101546.31
2022-08-21T21:49:56.726Z,101541.84
2022-08-21T21:52:39.440Z,101543.44
2022-08-21T21:55:25.238Z,101547.13
2022-08-21T21:58:16.868Z,101549.16
2022-08-21T22:00:52.232Z,101544.16
2022-08-21T22:03:30.789Z,101549.72
2022-08-21T22:06:07.596Z,101547.28
2022-08-21T22:08:50.601Z,101552.28
2022-08-21T22:11:29.320Z,101541.59
2022-08-21T22:14:06.202Z,101555.00
2022-08-21T22:16:38.022Z,101552.28
2022-08-21T22:19:17.843Z,101548.28
2022-08-21T22:21:53.010Z,101553.00
2022-08-21T22:24:27.767Z,101550.13
2022-08-21T22:27:01.849Z,101551.16
2022-08-21T22:29:45.306Z,101549.41
2022-08-21T22:32:14.587Z,101551.31
2022-08-21T22:34:44.348Z,101555.56
2022-08-21T22:37:22.843Z,101549.28
2022-08-21T22:39:55.530Z,101550.13
2022-08-21T22:42:27.598Z,101545.16
2022-08-21T22:44:58.024Z,101553.72
2022-08-21T22:47:31.771Z,101551.00
2022-08-21T22:52:57.058Z,101556.88
2022-08-21T22:55:29.492Z,101546.72
2022-08-21T22:58:05.973Z,101551.81
2022-08-21T23:00:44.512Z,101543.72
2022-08-21T23:03:31.851Z,101552.72
2022-08-21T23:06:11.486Z,101548.72
2022-08-21T23:11:39.885Z,101548.28
2022-08-21T23:17:01.011Z,101557.84
2022-08-21T23:19:43.270Z,101547.28
2022-08-21T23:22:33.485Z,101552.25
2022-08-21T23:25:14.101Z,101552.56
2022-08-21T23:27:56.179Z,101555.38
2022-08-21T23:30:45.109Z,101554.97
2022-08-21T23:33:34.296Z,101552.53
2022-08-21T23:36:30.020Z,101562.66
2022-08-21T23:39:15.703Z,101560.56
2022-08-21T23:41:57.087Z,101556.41
2022-08-21T23:44:40.962Z,101558.84
2022-08-21T23:47:27.621Z,101558.25
2022-08-21T23:50:13.921Z,101558.97
2022-08-21T23:52:56.180Z,101552.53
2022-08-21T23:55:41.312Z,101560.69
2022-08-21T23:58:25.173Z,101555.56
